Carlton, Washington
Current Conditions -  °F | °C
As of 11:53 PM on Friday 31 Oct 2014 (Local Time) from KOMK Reporting Station
Overcast Overcast  
Wind Chill: 48°   Ceiling: 2400
Heat Index: 48°   Visibility: 10mi
Dew Point: 46°   Wind: 3mph
Humidity: 93%   Direction: 270°W
Pressure: 29.78"   Gusts: NA
Location:  48.25°N, 120.12°W
Report Text: KOMK 010653Z AUTO 27003KT 10SM OVC024 09/08 A2978 RMK AO2 SLP090 T00890078
Loading
Personal Weather Stations






























Interactive Weather Map New forecast layout! Learn more

10-Day Weather Forecast

Advertisements
Track Severe Weather on mobile